createdAt,value
2018-02-04T00:00:40.960Z,991.08
2018-02-04T00:01:40.947Z,991.04
2018-02-04T00:02:40.946Z,991.09
2018-02-04T00:03:40.943Z,991.11
2018-02-04T00:04:40.927Z,991.06
2018-02-04T00:05:40.933Z,991.08
2018-02-04T00:06:40.918Z,991.05
2018-02-04T00:07:41.802Z,991.05
2018-02-04T00:08:40.903Z,991.05
2018-02-04T00:09:41.873Z,991.04
2018-02-04T00:10:40.893Z,991.04
2018-02-04T00:11:40.873Z,991.03
2018-02-04T00:12:40.884Z,991.08
2018-02-04T00:13:40.859Z,991.06
2018-02-04T00:14:40.870Z,991.08
2018-02-04T00:15:40.852Z,991.12
2018-02-04T00:16:40.916Z,991.08
2018-02-04T00:17:40.832Z,991.08
2018-02-04T00:18:40.822Z,991.14
2018-02-04T00:19:40.911Z,991.15
2018-02-04T00:20:40.826Z,991.15
2018-02-04T00:21:40.851Z,991.19
2018-02-04T00:22:40.792Z,991.22
2018-02-04T00:23:40.860Z,991.21
2018-02-04T00:24:40.779Z,991.20
2018-02-04T00:25:40.793Z,991.17
2018-02-04T00:26:40.786Z,991.17
2018-02-04T00:27:40.755Z,991.18
2018-02-04T00:28:40.816Z,991.19
2018-02-04T00:29:40.817Z,991.19
2018-02-04T00:30:40.732Z,991.17
2018-02-04T00:31:40.950Z,991.18
2018-02-04T00:32:40.737Z,991.17
2018-02-04T00:33:40.765Z,991.15
2018-02-04T00:34:40.906Z,991.19
2018-02-04T00:35:40.696Z,991.18
2018-02-04T00:36:40.688Z,991.20
2018-02-04T00:37:41.378Z,991.18
2018-02-04T00:38:40.674Z,991.20
2018-02-04T00:39:40.670Z,991.17
2018-02-04T00:40:40.925Z,991.20
2018-02-04T00:41:40.674Z,991.21
2018-02-04T00:42:40.688Z,991.27
2018-02-04T00:43:40.649Z,991.28
2018-02-04T00:44:40.702Z,991.30
2018-02-04T00:45:40.623Z,991.30
2018-02-04T00:46:40.709Z,991.34
2018-02-04T00:47:40.728Z,991.35
2018-02-04T00:48:41.362Z,991.36
2018-02-04T00:49:41.337Z,991.34
2018-02-04T00:50:40.587Z,991.40
2018-02-04T00:51:41.367Z,991.35
2018-02-04T00:52:40.918Z,991.39
2018-02-04T00:53:40.578Z,991.40
2018-02-04T00:54:40.605Z,991.42
2018-02-04T00:55:40.550Z,991.35
2018-02-04T00:56:40.540Z,991.40
2018-02-04T00:57:40.533Z,991.36
2018-02-04T00:58:40.530Z,991.39
2018-02-04T00:59:40.518Z,991.37
2018-02-04T01:00:40.510Z,991.38
2018-02-04T01:01:40.503Z,991.36
2018-02-04T01:02:40.505Z,991.33
2018-02-04T01:03:40.490Z,991.38
2018-02-04T01:04:40.482Z,991.32
2018-02-04T01:05:40.473Z,991.34
2018-02-04T01:06:40.514Z,991.37
2018-02-04T01:07:40.460Z,991.36
2018-02-04T01:08:40.451Z,991.41
2018-02-04T01:09:40.468Z,991.46
2018-02-04T01:10:40.435Z,991.46
2018-02-04T01:11:40.430Z,991.51
2018-02-04T01:12:40.427Z,991.50
2018-02-04T01:13:40.419Z,991.50
2018-02-04T01:14:40.411Z,991.51
2018-02-04T01:15:40.398Z,991.58
2018-02-04T01:16:40.393Z,991.53
2018-02-04T01:17:40.390Z,991.53
2018-02-04T01:18:41.530Z,991.47
2018-02-04T01:19:40.373Z,991.52
2018-02-04T01:20:40.364Z,991.52
2018-02-04T01:21:40.354Z,991.54
2018-02-04T01:22:40.354Z,991.51
2018-02-04T01:23:40.782Z,991.57
2018-02-04T01:24:40.336Z,991.52
2018-02-04T01:25:40.325Z,991.53
2018-02-04T01:26:40.317Z,991.51
2018-02-04T01:27:40.309Z,991.53
2018-02-04T01:28:40.302Z,991.52
2018-02-04T01:29:40.328Z,991.56
2018-02-04T01:30:40.291Z,991.56
2018-02-04T01:31:40.292Z,991.55
2018-02-04T01:32:40.273Z,991.55
2018-02-04T01:33:40.266Z,991.59
2018-02-04T01:34:40.255Z,991.57
2018-02-04T01:35:40.250Z,991.57
2018-02-04T01:36:40.244Z,991.57
2018-02-04T01:37:40.274Z,991.56
2018-02-04T01:38:40.236Z,991.58
2018-02-04T01:39:40.224Z,991.59
2018-02-04T01:40:40.244Z,991.57
2018-02-04T01:41:40.203Z,991.60
2018-02-04T01:42:40.201Z,991.63
2018-02-04T01:43:40.191Z,991.63
2018-02-04T01:44:40.186Z,991.62
2018-02-04T01:45:40.280Z,991.65
2018-02-04T01:46:40.173Z,991.64
2018-02-04T01:47:40.165Z,991.61
2018-02-04T01:48:40.172Z,991.66
2018-02-04T01:49:40.170Z,991.69
2018-02-04T01:50:40.136Z,991.68
2018-02-04T01:51:40.133Z,991.69
2018-02-04T01:52:40.122Z,991.72
2018-02-04T01:53:40.113Z,991.72
2018-02-04T01:54:40.107Z,991.77
2018-02-04T01:55:40.101Z,991.78
2018-02-04T01:56:40.095Z,991.79
2018-02-04T01:57:40.092Z,991.75
2018-02-04T01:58:40.078Z,991.83
2018-02-04T01:59:40.086Z,991.82
2018-02-04T02:00:40.092Z,991.92
2018-02-04T02:01:40.055Z,991.90
2018-02-04T02:02:40.095Z,991.96
2018-02-04T02:03:40.045Z,992.01
2018-02-04T02:04:40.048Z,991.97
2018-02-04T02:05:40.049Z,991.99
2018-02-04T02:06:40.858Z,992.06
2018-02-04T02:07:40.091Z,992.04
2018-02-04T02:08:41.313Z,992.08
2018-02-04T02:09:43.317Z,992.08
2018-02-04T02:10:41.802Z,992.07
2018-02-04T02:11:40.061Z,992.08
2018-02-04T02:12:41.776Z,992.09
2018-02-04T02:13:42.802Z,992.06
2018-02-04T02:14:41.302Z,992.02
2018-02-04T02:15:48.803Z,992.04
2018-02-04T02:16:41.803Z,992.05
2018-02-04T02:17:43.807Z,992.03
2018-02-04T02:18:44.314Z,992.06
2018-02-04T02:19:41.301Z,992.08
2018-02-04T02:20:41.798Z,992.08
2018-02-04T02:21:42.310Z,992.05
2018-02-04T02:22:39.979Z,992.07
2018-02-04T02:23:41.820Z,992.12
2018-02-04T02:24:44.293Z,992.13
2018-02-04T02:25:41.304Z,992.12
2018-02-04T02:26:39.867Z,992.15
2018-02-04T02:27:39.864Z,992.14
2018-02-04T02:28:39.860Z,992.16
2018-02-04T02:29:39.844Z,992.17
2018-02-04T02:30:39.837Z,992.17
2018-02-04T02:31:39.836Z,992.15
2018-02-04T02:32:39.824Z,992.24
2018-02-04T02:33:39.813Z,992.19
2018-02-04T02:34:39.814Z,992.19
2018-02-04T02:35:39.800Z,992.20
2018-02-04T02:36:39.792Z,992.22
2018-02-04T02:37:41.312Z,992.18
2018-02-04T02:38:40.818Z,992.23
2018-02-04T02:39:41.800Z,992.22
2018-02-04T02:40:41.808Z,992.20
2018-02-04T02:41:41.312Z,992.22
2018-02-04T02:42:41.797Z,992.24
2018-02-04T02:43:41.319Z,992.25
2018-02-04T02:44:40.311Z,992.25
2018-02-04T02:45:40.809Z,992.20
2018-02-04T02:46:41.303Z,992.25
2018-02-04T02:47:40.803Z,992.28
2018-02-04T02:48:42.382Z,992.33
2018-02-04T02:49:40.815Z,992.30
2018-02-04T02:50:40.308Z,992.32
2018-02-04T02:51:40.803Z,992.35
2018-02-04T02:52:40.805Z,992.32
2018-02-04T02:53:41.307Z,992.38
2018-02-04T02:54:40.319Z,992.36
2018-02-04T02:55:41.809Z,992.35
2018-02-04T02:56:39.663Z,992.35
2018-02-04T02:57:39.639Z,992.36
2018-02-04T02:58:39.731Z,992.38
2018-02-04T02:59:40.294Z,992.38
2018-02-04T03:00:39.694Z,992.41
2018-02-04T03:01:39.627Z,992.42
2018-02-04T03:02:39.764Z,992.41
2018-02-04T03:03:39.700Z,992.43
2018-02-04T03:04:40.313Z,992.49
2018-02-04T03:05:40.792Z,992.48
2018-02-04T03:06:39.614Z,992.51
2018-02-04T03:07:40.313Z,992.51
2018-02-04T03:08:40.279Z,992.51
2018-02-04T03:09:39.685Z,992.58
2018-02-04T03:10:40.359Z,992.58
2018-02-04T03:11:39.630Z,992.61
2018-02-04T03:12:39.712Z,992.61
2018-02-04T03:13:39.757Z,992.63
2018-02-04T03:14:39.518Z,992.66
2018-02-04T03:15:39.586Z,992.65
2018-02-04T03:16:39.638Z,992.68
2018-02-04T03:17:40.285Z,992.65
2018-02-04T03:18:40.372Z,992.65
2018-02-04T03:19:39.702Z,992.67
2018-02-04T03:20:39.566Z,992.63
2018-02-04T03:21:39.705Z,992.64
2018-02-04T03:22:39.591Z,992.69
2018-02-04T03:23:39.529Z,992.72
2018-02-04T03:24:39.436Z,992.75
2018-02-04T03:25:39.421Z,992.79
2018-02-04T03:26:39.419Z,992.82
2018-02-04T03:27:39.409Z,992.82
2018-02-04T03:28:39.399Z,992.87
2018-02-04T03:29:39.390Z,992.85
2018-02-04T03:30:39.384Z,992.91
2018-02-04T03:31:39.376Z,992.92
2018-02-04T03:32:39.368Z,992.96
2018-02-04T03:33:39.369Z,992.99
2018-02-04T03:34:39.352Z,992.97
2018-02-04T03:35:39.349Z,993.00
2018-02-04T03:36:39.337Z,992.98
2018-02-04T03:37:39.331Z,993.03
2018-02-04T03:38:39.324Z,993.08
2018-02-04T03:39:39.314Z,993.06
2018-02-04T03:40:39.306Z,993.11
2018-02-04T03:41:39.300Z,993.08
2018-02-04T03:42:39.292Z,993.13
2018-02-04T03:43:39.285Z,993.15
2018-02-04T03:44:39.277Z,993.13
2018-02-04T03:45:39.268Z,993.17
2018-02-04T03:46:39.261Z,993.22
2018-02-04T03:47:39.254Z,993.23
2018-02-04T03:48:39.248Z,993.21
2018-02-04T03:49:39.239Z,993.22
2018-02-04T03:50:39.234Z,993.20
2018-02-04T03:51:39.225Z,993.22
2018-02-04T03:52:39.218Z,993.21
2018-02-04T03:53:39.209Z,993.25
2018-02-04T03:54:39.202Z,993.22
2018-02-04T03:55:39.195Z,993.22
2018-02-04T03:56:39.190Z,993.24
2018-02-04T03:57:39.184Z,993.28
2018-02-04T03:58:39.173Z,993.29
2018-02-04T03:59:39.165Z,993.31
2018-02-04T04:00:39.163Z,993.31
2018-02-04T04:01:39.149Z,993.36
2018-02-04T04:02:39.144Z,993.40
2018-02-04T04:03:39.137Z,993.40
2018-02-04T04:04:39.130Z,993.42
2018-02-04T04:05:39.120Z,993.45
2018-02-04T04:06:39.114Z,993.45
2018-02-04T04:07:39.105Z,993.50
2018-02-04T04:08:39.101Z,993.51
2018-02-04T04:09:39.092Z,993.55
2018-02-04T04:10:39.083Z,993.54
2018-02-04T04:11:39.079Z,993.53
2018-02-04T04:12:39.068Z,993.56
2018-02-04T04:13:39.061Z,993.57
2018-02-04T04:14:39.053Z,993.58
2018-02-04T04:15:39.047Z,993.59
2018-02-04T04:16:39.042Z,993.60
2018-02-04T04:17:39.031Z,993.60
2018-02-04T04:18:39.023Z,993.60
2018-02-04T04:19:39.016Z,993.62
2018-02-04T04:20:39.011Z,993.59
2018-02-04T04:21:39.006Z,993.64
2018-02-04T04:22:38.996Z,993.64
2018-02-04T04:23:38.995Z,993.64
2018-02-04T04:24:38.979Z,993.68
2018-02-04T04:25:38.977Z,993.67
2018-02-04T04:26:38.963Z,993.69
2018-02-04T04:27:38.972Z,993.73
2018-02-04T04:28:38.949Z,993.70
2018-02-04T04:29:38.941Z,993.74
2018-02-04T04:30:38.934Z,993.75
2018-02-04T04:31:38.937Z,993.78
2018-02-04T04:32:38.918Z,993.79
2018-02-04T04:33:38.910Z,993.77
2018-02-04T04:34:38.905Z,993.80
2018-02-04T04:35:38.893Z,993.80
2018-02-04T04:36:38.888Z,993.81
2018-02-04T04:37:38.877Z,993.84
2018-02-04T04:38:38.873Z,993.85
2018-02-04T04:39:38.862Z,993.85
2018-02-04T04:40:38.856Z,993.91
2018-02-04T04:41:38.847Z,993.87
2018-02-04T04:42:38.858Z,993.91
2018-02-04T04:43:38.864Z,993.90
2018-02-04T04:44:39.313Z,993.94
2018-02-04T04:45:38.990Z,993.93
2018-02-04T04:46:39.808Z,993.89
2018-02-04T04:47:40.299Z,993.96
2018-02-04T04:48:39.824Z,993.93
2018-02-04T04:49:40.076Z,993.99
2018-02-04T04:50:38.805Z,994.00
2018-02-04T04:51:38.818Z,993.96
2018-02-04T04:52:38.764Z,993.98
2018-02-04T04:53:38.815Z,993.98
2018-02-04T04:54:38.811Z,993.99
2018-02-04T04:55:38.776Z,994.00
2018-02-04T04:56:38.744Z,994.00
2018-02-04T04:57:38.732Z,994.01
2018-02-04T04:58:38.741Z,994.01
2018-02-04T04:59:38.712Z,994.03
2018-02-04T05:00:38.730Z,994.06
2018-02-04T05:01:38.731Z,994.08
2018-02-04T05:02:38.696Z,994.08
2018-02-04T05:03:38.723Z,994.07
2018-02-04T05:04:38.731Z,994.08
2018-02-04T05:05:38.656Z,994.14
2018-02-04T05:06:38.724Z,994.13
2018-02-04T05:07:38.637Z,994.13
2018-02-04T05:08:38.627Z,994.16
2018-02-04T05:09:38.616Z,994.16
2018-02-04T05:10:38.618Z,994.15
2018-02-04T05:11:38.601Z,994.13
2018-02-04T05:12:38.606Z,994.16
2018-02-04T05:13:38.585Z,994.19
2018-02-04T05:14:38.571Z,994.24
2018-02-04T05:15:38.563Z,994.25
2018-02-04T05:16:38.551Z,994.26
2018-02-04T05:17:38.552Z,994.27
2018-02-04T05:18:38.537Z,994.29
2018-02-04T05:19:38.532Z,994.27
2018-02-04T05:20:38.520Z,994.26
2018-02-04T05:21:38.508Z,994.28
2018-02-04T05:22:38.514Z,994.30
2018-02-04T05:23:38.520Z,994.30
2018-02-04T05:24:38.486Z,994.36
2018-02-04T05:25:38.484Z,994.37
2018-02-04T05:26:38.463Z,994.34
2018-02-04T05:27:38.457Z,994.36
2018-02-04T05:28:38.452Z,994.41
2018-02-04T05:29:38.436Z,994.42
2018-02-04T05:30:38.433Z,994.42
2018-02-04T05:31:38.419Z,994.41
2018-02-04T05:32:38.410Z,994.46
2018-02-04T05:33:38.403Z,994.47
2018-02-04T05:34:38.400Z,994.45
2018-02-04T05:35:38.383Z,994.49
2018-02-04T05:36:38.376Z,994.48
2018-02-04T05:37:38.364Z,994.48
2018-02-04T05:38:38.357Z,994.54
2018-02-04T05:39:38.348Z,994.61
2018-02-04T05:40:38.341Z,994.54
2018-02-04T05:41:38.330Z,994.58
2018-02-04T05:42:38.324Z,994.63
2018-02-04T05:43:38.313Z,994.67
2018-02-04T05:44:38.307Z,994.70
2018-02-04T05:45:38.304Z,994.71
2018-02-04T05:46:38.288Z,994.69
2018-02-04T05:47:38.280Z,994.73
2018-02-04T05:48:38.273Z,994.72
2018-02-04T05:49:38.260Z,994.77
2018-02-04T05:50:38.250Z,994.80
2018-02-04T05:51:38.241Z,994.83
2018-02-04T05:52:38.233Z,994.82
2018-02-04T05:53:38.224Z,994.82
2018-02-04T05:54:38.214Z,994.85
2018-02-04T05:55:38.205Z,994.85
2018-02-04T05:56:38.197Z,994.89
2018-02-04T05:57:38.187Z,994.91
2018-02-04T05:58:38.178Z,994.95
2018-02-04T05:59:38.173Z,994.98
2018-02-04T06:00:38.167Z,995.04
2018-02-04T06:01:38.150Z,995.11
2018-02-04T06:02:38.142Z,995.10
2018-02-04T06:03:38.133Z,995.11
2018-02-04T06:04:38.126Z,995.13
2018-02-04T06:05:38.115Z,995.14
2018-02-04T06:06:38.105Z,995.13
2018-02-04T06:07:38.095Z,995.19
2018-02-04T06:08:38.087Z,995.21
2018-02-04T06:09:38.077Z,995.23
2018-02-04T06:10:38.066Z,995.26
2018-02-04T06:11:38.063Z,995.28
2018-02-04T06:12:38.049Z,995.30
2018-02-04T06:13:38.038Z,995.37
2018-02-04T06:14:38.029Z,995.39
2018-02-04T06:15:38.020Z,995.39
2018-02-04T06:16:38.012Z,995.44
2018-02-04T06:17:38.002Z,995.46
2018-02-04T06:18:37.992Z,995.51
2018-02-04T06:19:37.993Z,995.46
2018-02-04T06:20:37.971Z,995.48
2018-02-04T06:21:37.961Z,995.52
2018-02-04T06:22:37.958Z,995.50
2018-02-04T06:23:37.945Z,995.54
2018-02-04T06:24:37.934Z,995.57
2018-02-04T06:25:37.923Z,995.55
2018-02-04T06:26:37.918Z,995.65
2018-02-04T06:27:37.903Z,995.66
2018-02-04T06:28:37.895Z,995.73
2018-02-04T06:29:37.889Z,995.72
2018-02-04T06:30:37.874Z,995.74
2018-02-04T06:31:37.865Z,995.77
2018-02-04T06:32:37.855Z,995.84
2018-02-04T06:33:37.844Z,995.86
2018-02-04T06:34:37.835Z,995.90
2018-02-04T06:35:37.828Z,995.92
2018-02-04T06:36:37.816Z,995.94
2018-02-04T06:37:37.805Z,996.03
2018-02-04T06:38:37.797Z,996.01
2018-02-04T06:39:37.786Z,996.05
2018-02-04T06:40:37.779Z,996.06
2018-02-04T06:41:37.769Z,996.09
2018-02-04T06:42:37.757Z,996.07
2018-02-04T06:43:37.755Z,996.09
2018-02-04T06:44:37.739Z,996.12
2018-02-04T06:45:37.727Z,996.10
2018-02-04T06:46:37.718Z,996.10
2018-02-04T06:47:37.711Z,996.09
2018-02-04T06:48:37.700Z,996.11
2018-02-04T06:49:37.689Z,996.17
2018-02-04T06:50:37.678Z,996.17
2018-02-04T06:51:37.670Z,996.21
2018-02-04T06:52:37.660Z,996.28
2018-02-04T06:53:37.687Z,996.23
2018-02-04T06:54:37.641Z,996.27
2018-02-04T06:55:37.632Z,996.33
2018-02-04T06:56:37.622Z,996.36
2018-02-04T06:57:37.610Z,996.36
2018-02-04T06:58:37.601Z,996.39
2018-02-04T06:59:37.591Z,996.37
2018-02-04T07:00:37.637Z,996.41
2018-02-04T07:01:37.571Z,996.46
2018-02-04T07:02:37.561Z,996.51
2018-02-04T07:03:37.550Z,996.53
2018-02-04T07:04:37.542Z,996.57
2018-02-04T07:05:37.531Z,996.60
2018-02-04T07:06:37.521Z,996.62
2018-02-04T07:07:37.511Z,996.62
2018-02-04T07:08:37.501Z,996.65
2018-02-04T07:09:37.524Z,996.68
2018-02-04T07:10:37.483Z,996.69
2018-02-04T07:11:37.471Z,996.69
2018-02-04T07:12:37.461Z,996.73
2018-02-04T07:13:37.450Z,996.75
2018-02-04T07:14:37.444Z,996.80
2018-02-04T07:15:37.430Z,996.78
2018-02-04T07:16:37.421Z,996.80
2018-02-04T07:17:37.411Z,996.82
2018-02-04T07:18:37.402Z,996.81
2018-02-04T07:19:37.401Z,996.84
2018-02-04T07:20:37.383Z,996.80
2018-02-04T07:21:37.373Z,996.84
2018-02-04T07:22:37.369Z,996.89
2018-02-04T07:23:37.355Z,996.88
2018-02-04T07:24:37.345Z,996.92
2018-02-04T07:25:37.333Z,996.92
2018-02-04T07:26:37.324Z,996.91
2018-02-04T07:27:37.311Z,996.89
2018-02-04T07:28:37.306Z,996.94
2018-02-04T07:29:37.291Z,997.01
2018-02-04T07:30:37.280Z,997.03
2018-02-04T07:31:37.314Z,997.03
2018-02-04T07:32:37.259Z,997.09
2018-02-04T07:33:37.249Z,997.08
2018-02-04T07:34:37.238Z,997.12
2018-02-04T07:35:37.232Z,997.14
2018-02-04T07:36:37.221Z,997.17
2018-02-04T07:37:37.208Z,997.24
2018-02-04T07:38:37.198Z,997.22
2018-02-04T07:39:37.189Z,997.26
2018-02-04T07:40:37.180Z,997.27
2018-02-04T07:41:37.168Z,997.30
2018-02-04T07:42:37.165Z,997.27
2018-02-04T07:43:37.149Z,997.28
2018-02-04T07:44:37.137Z,997.31
2018-02-04T07:45:37.129Z,997.29
2018-02-04T07:46:37.117Z,997.28
2018-02-04T07:47:37.107Z,997.32
2018-02-04T07:48:37.098Z,997.31
2018-02-04T07:49:37.088Z,997.38
2018-02-04T07:50:37.077Z,997.39
2018-02-04T07:51:37.070Z,997.38
2018-02-04T07:52:37.057Z,997.39
2018-02-04T07:53:37.048Z,997.43
2018-02-04T07:54:37.042Z,997.47
2018-02-04T07:55:37.027Z,997.47
2018-02-04T07:56:37.018Z,997.45
2018-02-04T07:57:37.007Z,997.46
2018-02-04T07:58:36.999Z,997.53
2018-02-04T07:59:36.990Z,997.54
2018-02-04T08:00:36.978Z,997.52
2018-02-04T08:01:36.977Z,997.58
2018-02-04T08:02:36.957Z,997.61
2018-02-04T08:03:36.948Z,997.67
2018-02-04T08:04:36.936Z,997.66
2018-02-04T08:05:36.925Z,997.73
2018-02-04T08:06:36.915Z,997.69
2018-02-04T08:07:36.906Z,997.72
2018-02-04T08:08:36.898Z,997.82
2018-02-04T08:09:36.885Z,997.84
2018-02-04T08:10:36.877Z,997.83
2018-02-04T08:11:36.864Z,997.89
2018-02-04T08:12:36.856Z,997.92
2018-02-04T08:13:36.844Z,997.91
2018-02-04T08:14:36.834Z,997.93
2018-02-04T08:15:36.825Z,997.94
2018-02-04T08:16:36.813Z,997.94
2018-02-04T08:17:36.809Z,997.94
2018-02-04T08:18:36.801Z,997.97
2018-02-04T08:19:36.783Z,997.95
2018-02-04T08:20:36.775Z,997.95
2018-02-04T08:21:36.763Z,998.02
2018-02-04T08:22:36.753Z,998.00
2018-02-04T08:23:36.743Z,998.08
2018-02-04T08:24:36.746Z,998.04
2018-02-04T08:25:36.722Z,998.03
2018-02-04T08:26:36.714Z,998.07
2018-02-04T08:27:36.704Z,998.09
2018-02-04T08:28:36.699Z,998.07
2018-02-04T08:29:36.693Z,998.11
2018-02-04T08:30:36.671Z,998.09
2018-02-04T08:31:36.661Z,998.10
2018-02-04T08:32:36.653Z,998.09
2018-02-04T08:33:36.638Z,998.13
2018-02-04T08:34:36.628Z,998.14
2018-02-04T08:35:36.679Z,998.15
2018-02-04T08:36:36.608Z,998.20
2018-02-04T08:37:36.601Z,998.17
2018-02-04T08:38:36.596Z,998.18
2018-02-04T08:39:36.576Z,998.26
2018-02-04T08:40:36.565Z,998.23
2018-02-04T08:41:36.554Z,998.25
2018-02-04T08:42:36.545Z,998.25
2018-02-04T08:43:36.534Z,998.29
2018-02-04T08:44:36.544Z,998.28
2018-02-04T08:45:36.513Z,998.28
2018-02-04T08:46:36.505Z,998.33
2018-02-04T08:47:36.492Z,998.35
2018-02-04T08:48:36.481Z,998.35
2018-02-04T08:49:36.472Z,998.31
2018-02-04T08:50:36.460Z,998.36
2018-02-04T08:51:36.457Z,998.41
2018-02-04T08:52:36.439Z,998.37
2018-02-04T08:53:36.428Z,998.42
2018-02-04T08:54:36.422Z,998.45
2018-02-04T08:55:36.416Z,998.48
2018-02-04T08:56:36.396Z,998.45
2018-02-04T08:57:36.397Z,998.48
2018-02-04T08:58:36.377Z,998.51
2018-02-04T08:59:36.365Z,998.53
2018-02-04T09:00:36.359Z,998.55
2018-02-04T09:01:36.344Z,998.56
2018-02-04T09:02:36.334Z,998.59
2018-02-04T09:03:36.325Z,998.60
2018-02-04T09:04:36.313Z,998.64
2018-02-04T09:05:36.303Z,998.67
2018-02-04T09:06:36.294Z,998.75
2018-02-04T09:07:36.282Z,998.72
2018-02-04T09:08:36.272Z,998.76
2018-02-04T09:09:36.260Z,998.77
2018-02-04T09:10:36.252Z,998.85
2018-02-04T09:11:36.240Z,998.84
2018-02-04T09:12:36.236Z,998.82
2018-02-04T09:13:36.221Z,998.83
2018-02-04T09:14:36.214Z,998.85
2018-02-04T09:15:36.199Z,998.88
2018-02-04T09:16:36.191Z,998.87
2018-02-04T09:17:36.179Z,998.87
2018-02-04T09:18:36.168Z,998.95
2018-02-04T09:19:36.158Z,998.96
2018-02-04T09:20:36.148Z,998.93
2018-02-04T09:21:36.136Z,999.00
2018-02-04T09:22:36.126Z,998.97
2018-02-04T09:23:36.115Z,998.99
2018-02-04T09:24:36.105Z,999.02
2018-02-04T09:25:36.098Z,999.07
2018-02-04T09:26:36.088Z,999.06
2018-02-04T09:27:36.074Z,999.06
2018-02-04T09:28:36.066Z,999.12
2018-02-04T09:29:36.054Z,999.11
2018-02-04T09:30:36.045Z,999.13
2018-02-04T09:31:36.033Z,999.14
2018-02-04T09:32:36.022Z,999.11
2018-02-04T09:33:36.011Z,999.16
2018-02-04T09:34:36.009Z,999.11
2018-02-04T09:35:35.995Z,999.26
2018-02-04T09:36:35.982Z,999.19
2018-02-04T09:37:35.970Z,999.23
2018-02-04T09:38:35.960Z,999.26
2018-02-04T09:39:35.949Z,999.29
2018-02-04T09:40:35.939Z,999.33
2018-02-04T09:41:35.928Z,999.34
2018-02-04T09:42:35.919Z,999.37
2018-02-04T09:43:35.907Z,999.36
2018-02-04T09:44:35.896Z,999.39
2018-02-04T09:45:35.893Z,999.35
2018-02-04T09:46:35.879Z,999.39
2018-02-04T09:47:35.865Z,999.39
2018-02-04T09:48:35.859Z,999.46
2018-02-04T09:49:35.845Z,999.43
2018-02-04T09:50:35.836Z,999.50
2018-02-04T09:51:35.826Z,999.43
2018-02-04T09:52:35.836Z,999.44
2018-02-04T09:53:35.806Z,999.45
2018-02-04T09:54:35.794Z,999.48
2018-02-04T09:55:35.784Z,999.51
2018-02-04T09:56:35.778Z,999.51
2018-02-04T09:57:35.767Z,999.51
2018-02-04T09:58:35.819Z,999.57
2018-02-04T09:59:35.749Z,999.56
2018-02-04T10:00:35.732Z,999.59
2018-02-04T10:01:35.725Z,999.58
2018-02-04T10:02:35.711Z,999.60
2018-02-04T10:03:35.708Z,999.63
2018-02-04T10:04:35.690Z,999.64
2018-02-04T10:05:35.694Z,999.63
2018-02-04T10:06:35.670Z,999.62
2018-02-04T10:07:35.660Z,999.63
2018-02-04T10:08:35.652Z,999.66
2018-02-04T10:09:35.642Z,999.65
2018-02-04T10:10:35.645Z,999.74
2018-02-04T10:11:35.618Z,999.71
2018-02-04T10:12:35.608Z,999.71
2018-02-04T10:13:35.599Z,999.72
2018-02-04T10:14:35.589Z,999.76
2018-02-04T10:15:35.579Z,999.76
2018-02-04T10:16:35.577Z,999.76
2018-02-04T10:17:35.556Z,999.75
2018-02-04T10:18:35.548Z,999.81
2018-02-04T10:19:35.537Z,999.84
2018-02-04T10:20:35.547Z,999.83
2018-02-04T10:21:35.515Z,999.84
2018-02-04T10:22:35.514Z,999.90
2018-02-04T10:23:35.495Z,999.86
2018-02-04T10:24:35.485Z,999.90
2018-02-04T10:25:35.507Z,999.85
2018-02-04T10:26:35.468Z,999.94
2018-02-04T10:27:36.273Z,999.89
2018-02-04T10:28:35.443Z,999.97
2018-02-04T10:29:35.431Z,1000.01
2018-02-04T10:30:35.430Z,1000.04
2018-02-04T10:31:35.415Z,999.98
2018-02-04T10:32:35.412Z,1000.06
2018-02-04T10:33:35.396Z,1000.01
2018-02-04T10:34:35.380Z,1000.00
2018-02-04T10:35:35.376Z,999.99
2018-02-04T10:36:35.360Z,1000.00
2018-02-04T10:37:35.347Z,999.96
2018-02-04T10:38:35.355Z,999.98
2018-02-04T10:39:35.327Z,999.99
2018-02-04T10:40:35.317Z,1000.00
2018-02-04T10:41:35.327Z,1000.02
2018-02-04T10:42:35.296Z,1000.03
2018-02-04T10:43:35.284Z,1000.04
2018-02-04T10:44:35.274Z,1000.06
2018-02-04T10:45:35.264Z,1000.09
2018-02-04T10:46:35.254Z,1000.13
2018-02-04T10:47:35.255Z,1000.10
2018-02-04T10:48:35.407Z,1000.11
2018-02-04T10:49:35.226Z,1000.13
2018-02-04T10:50:35.216Z,1000.15
2018-02-04T10:51:35.200Z,1000.21
2018-02-04T10:52:35.189Z,1000.20
2018-02-04T10:53:35.186Z,1000.20
2018-02-04T10:54:35.170Z,1000.20
2018-02-04T10:55:35.161Z,1000.22
2018-02-04T10:56:35.149Z,1000.18
2018-02-04T10:57:35.139Z,1000.19
2018-02-04T10:58:35.128Z,1000.30
2018-02-04T10:59:35.116Z,1000.25
2018-02-04T11:00:35.108Z,1000.28
2018-02-04T11:01:35.096Z,1000.31
2018-02-04T11:02:35.086Z,1000.32
2018-02-04T11:03:35.080Z,1000.30
2018-02-04T11:04:35.069Z,1000.35
2018-02-04T11:05:35.054Z,1000.37
2018-02-04T11:06:35.053Z,1000.38
2018-02-04T11:07:35.046Z,1000.40
2018-02-04T11:08:35.034Z,1000.41
2018-02-04T11:09:35.017Z,1000.44
2018-02-04T11:10:35.004Z,1000.45
2018-02-04T11:11:35.036Z,1000.48
2018-02-04T11:12:34.993Z,1000.51
2018-02-04T11:13:34.976Z,1000.61
2018-02-04T11:14:34.964Z,1000.57
2018-02-04T11:15:34.957Z,1000.61
2018-02-04T11:16:34.951Z,1000.58
2018-02-04T11:17:34.926Z,1000.61
2018-02-04T11:18:34.941Z,1000.61
2018-02-04T11:19:34.905Z,1000.61
2018-02-04T11:20:34.894Z,1000.68
2018-02-04T11:21:34.883Z,1000.70
2018-02-04T11:22:34.922Z,1000.69
2018-02-04T11:23:34.863Z,1000.67
2018-02-04T11:24:34.855Z,1000.70
2018-02-04T11:25:34.846Z,1000.68
2018-02-04T11:26:34.832Z,1000.70
2018-02-04T11:27:34.820Z,1000.70
2018-02-04T11:28:34.810Z,1000.76
2018-02-04T11:29:34.802Z,1000.76
2018-02-04T11:30:34.790Z,1000.77
2018-02-04T11:31:34.786Z,1000.78
2018-02-04T11:32:34.771Z,1000.85
2018-02-04T11:33:34.753Z,1000.80
2018-02-04T11:34:34.744Z,1000.85
2018-02-04T11:35:34.735Z,1000.88
2018-02-04T11:36:34.723Z,1000.93
2018-02-04T11:37:34.713Z,1000.92
2018-02-04T11:38:34.701Z,1000.92
2018-02-04T11:39:34.691Z,1000.92
2018-02-04T11:40:34.685Z,1000.97
2018-02-04T11:41:34.669Z,1000.97
2018-02-04T11:42:34.663Z,1000.99
2018-02-04T11:43:34.649Z,1000.97
2018-02-04T11:44:34.724Z,1000.93
2018-02-04T11:45:34.628Z,1000.96
2018-02-04T11:46:34.676Z,1000.98
2018-02-04T11:47:34.686Z,1001.01
2018-02-04T11:48:34.598Z,1001.02
2018-02-04T11:49:34.600Z,1001.00
2018-02-04T11:50:34.580Z,1001.00
2018-02-04T11:51:34.566Z,1001.03
2018-02-04T11:52:34.555Z,1001.04
2018-02-04T11:53:34.545Z,1001.02
2018-02-04T11:54:34.533Z,1001.02
2018-02-04T11:55:34.522Z,1001.03
2018-02-04T11:56:34.511Z,1001.06
2018-02-04T11:57:34.502Z,1001.05
2018-02-04T11:58:34.491Z,1001.09
2018-02-04T11:59:34.480Z,1001.08
2018-02-04T12:00:34.470Z,1001.10
2018-02-04T12:01:34.467Z,1001.09
2018-02-04T12:02:34.450Z,1001.09
2018-02-04T12:03:34.447Z,1001.09
2018-02-04T12:04:34.428Z,1001.03
2018-02-04T12:05:34.424Z,1001.05
2018-02-04T12:06:34.412Z,1001.05
2018-02-04T12:07:34.396Z,1001.01
2018-02-04T12:08:34.392Z,1001.00
2018-02-04T12:09:34.420Z,1001.02
2018-02-04T12:10:34.366Z,1001.02
2018-02-04T12:11:34.362Z,1001.01
2018-02-04T12:12:34.347Z,1001.01
2018-02-04T12:13:34.338Z,1001.06
2018-02-04T12:14:34.323Z,1001.00
2018-02-04T12:15:34.373Z,1001.05
2018-02-04T12:16:34.303Z,1001.04
2018-02-04T12:17:34.293Z,1001.09
2018-02-04T12:18:34.281Z,1001.11
2018-02-04T12:19:34.274Z,1001.07
2018-02-04T12:20:34.264Z,1001.11
2018-02-04T12:21:34.252Z,1001.12
2018-02-04T12:22:34.243Z,1001.12
2018-02-04T12:23:34.234Z,1001.12
2018-02-04T12:24:34.220Z,1001.16
2018-02-04T12:25:34.211Z,1001.14